Time;durP1;ratioP1;P1;durP2;ratioP2;P2;SDS_P1;SDS_P2;PMS_P1;PMS_P2;Temp;Humidity;BMP_temperature;BMP_pressure;BME280_temperature;BME280_humidity;BME280_pressure;Samples;Min_cycle;Max_cycle;Signal;HPM_P1;HPM_P2
2022/02/20 00:02:02;;;;;;;;;;;;;;;;;;5043104;27;87175;-46
2022/02/20 00:04:28;;;;;;;;;;;;;;;;;;5043477;27;87621;-46
2022/02/20 00:06:54;;;;;;;;;;;;;;;;;;5043505;27;89413;-46
2022/02/20 00:09:20;;;;;;;;;;;;;;;;;;5043588;27;87139;-46
2022/02/20 00:11:46;;;;;;;;;;;;;;;;;;5046731;27;88235;-46
2022/02/20 00:14:12;;;;;;;;;;;;;;;;;;5043734;27;86989;-46
2022/02/20 00:16:38;;;;;;;;;;;;;;;;;;5042810;27;88329;-46
2022/02/20 00:19:04;;;;;;;;;;;;;;;;;;5042288;27;90890;-46
2022/02/20 00:21:30;;;;;;;;;;;;;;;;;;5043540;27;87134;-46
2022/02/20 00:23:56;;;;;;;;;;;;;;;;;;5043463;27;88339;-46
2022/02/20 00:26:21;;;;;;;;;;;;;;;;;;5043150;27;89567;-46
2022/02/20 00:28:47;;;;;;;;;;;;;;;;;;5043258;27;86934;-46
2022/02/20 00:31:13;;;;;;;;;;;;;;;;;;5043492;27;88278;-46
2022/02/20 00:33:39;;;;;;;;;;;;;;;;;;5045689;28;89512;-46
2022/02/20 00:36:05;;;;;;;;;;;;;;;;;;5043683;27;88341;-46
2022/02/20 00:38:31;;;;;;;;;;;;;;;;;;5043236;27;89044;-46
2022/02/20 00:40:57;;;;;;;;;;;;;;;;;;5043171;27;87102;-46
2022/02/20 00:43:23;;;;;;;;;;;;;;;;;;5042772;27;88802;-46
2022/02/20 00:45:49;;;;;;;;;;;;;;;;;;5042890;27;89243;-44
2022/02/20 00:48:19;;;;;;;;;;;;;;;;;;5042888;27;87135;-46
2022/02/20 00:50:44;;;;;;;;;;;;;;;;;;5043458;27;88337;-46
2022/02/20 00:53:10;;;;;;;;;;;;;;;;;;5042811;27;88278;-46
2022/02/20 00:55:37;;;;;;;;;;;;;;;;;;5045840;27;86910;-46
2022/02/20 00:58:02;;;;;;;;;;;;;;;;;;5041434;28;91166;-46
2022/02/20 01:00:28;;;;;;;;;;;;;;;;;;5043671;27;86369;-46
2022/02/20 01:02:54;;;;;;;;;;;;;;;;;;5042461;27;87064;-46
2022/02/20 01:05:20;;;;;;;;;;;;;;;;;;5042922;27;89734;-46
2022/02/20 01:07:46;;;;;;;;;;;;;;;;;;5042322;27;88073;-46
2022/02/20 01:10:12;;;;;;;;;;;;;;;;;;5042984;27;89251;-46
2022/02/20 01:12:38;;;;;;;;;;;;;;;;;;5042480;27;89320;-44
2022/02/20 01:15:04;;;;;;;;;;;;;;;;;;5045758;27;86911;-46
2022/02/20 01:17:30;;;;;;;;;;;;;;;;;;5042232;27;91065;-46
2022/02/20 01:19:56;;;;;;;;;;;;;;;;;;5042623;27;87232;-46
2022/02/20 01:22:22;;;;;;;;;;;;;;;;;;5042905;27;88344;-46
2022/02/20 01:24:47;;;;;;;;;;;;;;;;;;5042982;27;88810;-46
2022/02/20 01:27:13;;;;;;;;;;;;;;;;;;5042646;27;86906;-46
2022/02/20 01:29:39;;;;;;;;;;;;;;;;;;5044840;27;88409;-46
2022/02/20 01:32:05;;;;;;;;;;;;;;;;;;5044836;27;90241;-46
2022/02/20 01:34:31;;;;;;;;;;;;;;;;;;5045129;28;86744;-46
2022/02/20 01:36:57;;;;;;;;;;;;;;;;;;5048406;27;88763;-46
2022/02/20 01:39:23;;;;;;;;;;;;;;;;;;5046050;27;87134;-46
2022/02/20 01:41:49;;;;;;;;;;;;;;;;;;5046001;28;88433;-46
2022/02/20 01:44:15;;;;;;;;;;;;;;;;;;5045529;27;89433;-46
2022/02/20 01:46:40;;;;;;;;;;;;;;;;;;5044530;28;86907;-46
2022/02/20 01:49:06;;;;;;;;;;;;;;;;;;5046622;27;88687;-46
2022/02/20 01:51:32;;;;;;;;;;;;;;;;;;5045442;27;89417;-46
2022/02/20 01:53:58;;;;;;;;;;;;;;;;;;5045829;27;87231;-46
2022/02/20 01:56:24;;;;;;;;;;;;;;;;;;5045108;27;88510;-46
2022/02/20 01:58:50;;;;;;;;;;;;;;;;;;5048322;27;88440;-46
2022/02/20 02:01:16;;;;;;;;;;;;;;;;;;5045335;27;88390;-46
2022/02/20 02:03:42;;;;;;;;;;;;;;;;;;5044984;27;88429;-46
2022/02/20 02:06:08;;;;;;;;;;;;;;;;;;5045450;28;87108;-46
2022/02/20 02:08:35;;;;;;;;;;;;;;;;;;5045694;27;88291;-46
2022/02/20 02:11:01;;;;;;;;;;;;;;;;;;5045203;27;89491;-46
2022/02/20 02:13:26;;;;;;;;;;;;;;;;;;5046059;27;86202;-46
2022/02/20 02:15:52;;;;;;;;;;;;;;;;;;5045327;27;87731;-46
2022/02/20 02:18:18;;;;;;;;;;;;;;;;;;5044674;28;89422;-46
2022/02/20 02:20:44;;;;;;;;;;;;;;;;;;5047803;27;87959;-46
2022/02/20 02:23:10;;;;;;;;;;;;;;;;;;5044878;28;89211;-46
2022/02/20 02:25:36;;;;;;;;;;;;;;;;;;5045288;27;86866;-47
2022/02/20 02:28:02;;;;;;;;;;;;;;;;;;5045143;27;88380;-46
2022/02/20 02:30:28;;;;;;;;;;;;;;;;;;5045017;27;89166;-46
2022/02/20 02:32:54;;;;;;;;;;;;;;;;;;5044847;27;86858;-46
2022/02/20 02:35:20;;;;;;;;;;;;;;;;;;5045080;27;88456;-46
2022/02/20 02:37:46;;;;;;;;;;;;;;;;;;5045172;27;88614;-46
2022/02/20 02:40:12;;;;;;;;;;;;;;;;;;5044835;27;87043;-46
2022/02/20 02:42:38;;;;;;;;;;;;;;;;;;5047517;27;88167;-46
2022/02/20 02:45:04;;;;;;;;;;;;;;;;;;5044672;27;88132;-46
2022/02/20 02:47:30;;;;;;;;;;;;;;;;;;5044700;27;89302;-46
2022/02/20 02:49:56;;;;;;;;;;;;;;;;;;5044734;27;88297;-46
2022/02/20 02:52:22;;;;;;;;;;;;;;;;;;5044734;27;87158;-46
2022/02/20 02:54:48;;;;;;;;;;;;;;;;;;5044961;27;87321;-46
2022/02/20 02:57:14;;;;;;;;;;;;;;;;;;5044175;27;88193;-46
2022/02/20 02:59:39;;;;;;;;;;;;;;;;;;5044804;27;87333;-46
2022/02/20 03:02:07;;;;;;;;;;;;;;;;;;5047222;27;88396;-46
2022/02/20 03:04:33;;;;;;;;;;;;;;;;;;5044965;27;87055;-46
2022/02/20 03:06:59;;;;;;;;;;;;;;;;;;5044905;27;87606;-46
2022/02/20 03:09:25;;;;;;;;;;;;;;;;;;5043535;28;90254;-46
2022/02/20 03:11:50;;;;;;;;;;;;;;;;;;5044695;27;87234;-45
2022/02/20 03:14:16;;;;;;;;;;;;;;;;;;5044448;27;87238;-46
2022/02/20 03:16:42;;;;;;;;;;;;;;;;;;5044136;27;87982;-46
2022/02/20 03:19:08;;;;;;;;;;;;;;;;;;5044371;27;86950;-46
2022/02/20 03:21:34;;;;;;;;;;;;;;;;;;5044483;27;88437;-46
2022/02/20 03:24:00;;;;;;;;;;;;;;;;;;5047164;27;89372;-46
2022/02/20 03:26:26;;;;;;;;;;;;;;;;;;5044681;27;87479;-46
2022/02/20 03:28:52;;;;;;;;;;;;;;;;;;5043984;27;89344;-46
2022/02/20 03:31:18;;;;;;;;;;;;;;;;;;5044291;27;87057;-46
2022/02/20 03:33:44;;;;;;;;;;;;;;;;;;5043469;27;88852;-46
2022/02/20 03:36:09;;;;;;;;;;;;;;;;;;5043835;27;89560;-46
2022/02/20 03:38:35;;;;;;;;;;;;;;;;;;5044078;27;87065;-46
2022/02/20 03:41:01;;;;;;;;;;;;;;;;;;5044109;27;88422;-46
2022/02/20 03:43:27;;;;;;;;;;;;;;;;;;5043739;27;89410;-46
2022/02/20 03:45:53;;;;;;;;;;;;;;;;;;5046997;27;87202;-46
2022/02/20 03:48:19;;;;;;;;;;;;;;;;;;5043477;27;89212;-46
2022/02/20 03:50:45;;;;;;;;;;;;;;;;;;5044000;27;86292;-46
2022/02/20 03:53:11;;;;;;;;;;;;;;;;;;5043290;27;87593;-46
2022/02/20 03:55:37;;;;;;;;;;;;;;;;;;5043455;27;89250;-46
2022/02/20 03:58:03;;;;;;;;;;;;;;;;;;5043066;27;88317;-46
2022/02/20 04:00:30;;;;;;;;;;;;;;;;;;5043690;27;89511;-46
2022/02/20 04:02:56;;;;;;;;;;;;;;;;;;5043191;27;88604;-46
2022/02/20 04:05:22;;;;;;;;;;;;;;;;;;5043811;27;87285;-46
2022/02/20 04:07:48;;;;;;;;;;;;;;;;;;5046295;27;88639;-46
2022/02/20 04:10:14;;;;;;;;;;;;;;;;;;5043753;27;87141;-46
2022/02/20 04:12:40;;;;;;;;;;;;;;;;;;5043689;28;88831;-46
2022/02/20 04:15:10;;;;;;;;;;;;;;;;;;5043839;27;88734;-46
2022/02/20 04:17:36;;;;;;;;;;;;;;;;;;5043565;27;87047;-46
2022/02/20 04:20:02;;;;;;;;;;;;;;;;;;5043733;27;88428;-48
2022/02/20 04:22:28;;;;;;;;;;;;;;;;;;5042421;27;90121;-45
2022/02/20 04:24:54;;;;;;;;;;;;;;;;;;5043397;27;87146;-45
2022/02/20 04:27:20;;;;;;;;;;;;;;;;;;5043315;27;88144;-46
2022/02/20 04:29:46;;;;;;;;;;;;;;;;;;5045884;27;89488;-46
2022/02/20 04:32:12;;;;;;;;;;;;;;;;;;5043318;27;88284;-45
2022/02/20 04:34:38;;;;;;;;;;;;;;;;;;5043337;27;88075;-46
2022/02/20 04:37:04;;;;;;;;;;;;;;;;;;5043236;28;87052;-46
2022/02/20 04:39:29;;;;;;;;;;;;;;;;;;5043915;27;88287;-46
2022/02/20 04:41:58;;;;;;;;;;;;;;;;;;5042948;27;89307;-45
2022/02/20 04:44:24;;;;;;;;;;;;;;;;;;5043135;27;87108;-44
2022/02/20 04:46:50;;;;;;;;;;;;;;;;;;5042674;27;88733;-46
2022/02/20 04:49:16;;;;;;;;;;;;;;;;;;5042732;27;89292;-47
2022/02/20 04:51:42;;;;;;;;;;;;;;;;;;5046327;27;87124;-45
2022/02/20 04:54:08;;;;;;;;;;;;;;;;;;5042819;27;89800;-45
2022/02/20 04:56:33;;;;;;;;;;;;;;;;;;5043206;27;87226;-45
2022/02/20 04:58:59;;;;;;;;;;;;;;;;;;5043195;27;88232;-46
2022/02/20 05:01:25;;;;;;;;;;;;;;;;;;5042338;27;89090;-45
2022/02/20 05:03:51;;;;;;;;;;;;;;;;;;5046103;27;86231;-45
2022/02/20 05:06:17;;;;;;;;;;;;;;;;;;5046689;28;87672;-47
2022/02/20 05:08:43;;;;;;;;;;;;;;;;;;5046198;27;89322;-46
2022/02/20 05:11:09;;;;;;;;;;;;;;;;;;5048864;27;87796;-45
2022/02/20 05:13:35;;;;;;;;;;;;;;;;;;5046030;27;89634;-48
2022/02/20 05:16:01;;;;;;;;;;;;;;;;;;5046044;27;87224;-45
2022/02/20 05:18:27;;;;;;;;;;;;;;;;;;5046244;27;88863;-44
2022/02/20 05:20:54;;;;;;;;;;;;;;;;;;5046101;27;89910;-45
2022/02/20 05:23:21;;;;;;;;;;;;;;;;;;5046114;27;86889;-45
2022/02/20 05:25:47;;;;;;;;;;;;;;;;;;5046317;28;88443;-45
2022/02/20 05:28:13;;;;;;;;;;;;;;;;;;5046327;27;88570;-48
2022/02/20 05:30:38;;;;;;;;;;;;;;;;;;5046313;27;87296;-47
2022/02/20 05:33:04;;;;;;;;;;;;;;;;;;5048750;27;88249;-45
2022/02/20 05:35:30;;;;;;;;;;;;;;;;;;5045211;27;88169;-44
2022/02/20 05:37:57;;;;;;;;;;;;;;;;;;5045906;27;89162;-45
2022/02/20 05:40:23;;;;;;;;;;;;;;;;;;5045768;27;88385;-46
2022/02/20 05:42:49;;;;;;;;;;;;;;;;;;5045816;27;86803;-45
2022/02/20 05:45:15;;;;;;;;;;;;;;;;;;5045770;27;88425;-44
2022/02/20 05:47:41;;;;;;;;;;;;;;;;;;5045462;27;89562;-45
2022/02/20 05:50:07;;;;;;;;;;;;;;;;;;5045898;27;86910;-48
2022/02/20 05:52:33;;;;;;;;;;;;;;;;;;5046220;28;88465;-45
2022/02/20 05:54:58;;;;;;;;;;;;;;;;;;5048454;27;89396;-45
2022/02/20 05:57:24;;;;;;;;;;;;;;;;;;5045603;27;88211;-45
2022/02/20 05:59:50;;;;;;;;;;;;;;;;;;5044471;27;91609;-45
2022/02/20 06:02:16;;;;;;;;;;;;;;;;;;5045198;27;87123;-47
2022/02/20 06:04:42;;;;;;;;;;;;;;;;;;5045891;27;88257;-46
2022/02/20 06:07:09;;;;;;;;;;;;;;;;;;5045165;27;89185;-46
2022/02/20 06:09:35;;;;;;;;;;;;;;;;;;5045696;27;87105;-47
2022/02/20 06:12:01;;;;;;;;;;;;;;;;;;5045494;27;87517;-46
2022/02/20 06:14:27;;;;;;;;;;;;;;;;;;5044394;27;88441;-46
2022/02/20 06:16:53;;;;;;;;;;;;;;;;;;5048695;27;86440;-46
2022/02/20 06:19:19;;;;;;;;;;;;;;;;;;5045057;27;89443;-46
2022/02/20 06:21:44;;;;;;;;;;;;;;;;;;5045295;27;87198;-46
2022/02/20 06:24:10;;;;;;;;;;;;;;;;;;5044808;27;88290;-46
2022/02/20 06:26:36;;;;;;;;;;;;;;;;;;5044873;27;89588;-46
2022/02/20 06:29:02;;;;;;;;;;;;;;;;;;5045077;27;86956;-46
2022/02/20 06:31:28;;;;;;;;;;;;;;;;;;5045365;27;88141;-46
2022/02/20 06:33:54;;;;;;;;;;;;;;;;;;5045083;27;89582;-46
2022/02/20 06:36:20;;;;;;;;;;;;;;;;;;5045038;27;87189;-46
2022/02/20 06:38:46;;;;;;;;;;;;;;;;;;5047793;27;87290;-46
2022/02/20 06:41:11;;;;;;;;;;;;;;;;;;5045650;27;86271;-46
2022/02/20 06:43:37;;;;;;;;;;;;;;;;;;5045142;27;87540;-46
2022/02/20 06:46:03;;;;;;;;;;;;;;;;;;5044668;27;89332;-46
2022/02/20 06:48:29;;;;;;;;;;;;;;;;;;5044176;27;88021;-46
2022/02/20 06:50:55;;;;;;;;;;;;;;;;;;5044921;27;89287;-46
2022/02/20 06:53:21;;;;;;;;;;;;;;;;;;5044600;27;88514;-46
2022/02/20 06:55:47;;;;;;;;;;;;;;;;;;5044580;28;86808;-44
2022/02/20 06:58:13;;;;;;;;;;;;;;;;;;5044669;27;88437;-46
2022/02/20 07:00:39;;;;;;;;;;;;;;;;;;5047389;27;89456;-46
2022/02/20 07:03:05;;;;;;;;;;;;;;;;;;5044613;27;88723;-46
2022/02/20 07:05:31;;;;;;;;;;;;;;;;;;5045023;27;88856;-46
2022/02/20 07:07:59;;;;;;;;;;;;;;;;;;5044518;27;87172;-46
2022/02/20 07:10:25;;;;;;;;;;;;;;;;;;5044654;27;88341;-46
2022/02/20 07:12:50;;;;;;;;;;;;;;;;;;5043360;27;90163;-46
2022/02/20 07:15:16;;;;;;;;;;;;;;;;;;5044863;27;87194;-46
2022/02/20 07:17:42;;;;;;;;;;;;;;;;;;5044424;27;88379;-46
2022/02/20 07:20:08;;;;;;;;;;;;;;;;;;5047021;27;88493;-46
2022/02/20 07:22:34;;;;;;;;;;;;;;;;;;5044351;27;88480;-46
2022/02/20 07:25:00;;;;;;;;;;;;;;;;;;5044274;27;87900;-46
2022/02/20 07:27:26;;;;;;;;;;;;;;;;;;5044132;27;87021;-46
2022/02/20 07:29:52;;;;;;;;;;;;;;;;;;5044633;27;88243;-46
2022/02/20 07:32:18;;;;;;;;;;;;;;;;;;5043891;27;89647;-46
2022/02/20 07:34:44;;;;;;;;;;;;;;;;;;5044258;27;87154;-46
2022/02/20 07:37:09;;;;;;;;;;;;;;;;;;5043532;27;88035;-46
2022/02/20 07:39:35;;;;;;;;;;;;;;;;;;5043687;27;89174;-48
2022/02/20 07:42:01;;;;;;;;;;;;;;;;;;5047060;27;87127;-46
2022/02/20 07:44:27;;;;;;;;;;;;;;;;;;5043536;27;89504;-46
2022/02/20 07:46:53;;;;;;;;;;;;;;;;;;5043991;27;87102;-46
2022/02/20 07:49:19;;;;;;;;;;;;;;;;;;5044252;27;87426;-46
2022/02/20 07:51:45;;;;;;;;;;;;;;;;;;5043485;27;88268;-46
2022/02/20 07:54:11;;;;;;;;;;;;;;;;;;5044363;27;86378;-46
2022/02/20 07:56:37;;;;;;;;;;;;;;;;;;5043750;27;87784;-46
2022/02/20 07:59:03;;;;;;;;;;;;;;;;;;5043286;27;89500;-46
2022/02/20 08:01:31;;;;;;;;;;;;;;;;;;5042757;27;88138;-46
2022/02/20 08:03:57;;;;;;;;;;;;;;;;;;5046353;27;88541;-46
2022/02/20 08:06:24;;;;;;;;;;;;;;;;;;5043692;27;87154;-46
2022/02/20 08:08:51;;;;;;;;;;;;;;;;;;5044119;27;86821;-46
2022/02/20 08:11:17;;;;;;;;;;;;;;;;;;5043338;27;89596;-46
2022/02/20 08:13:43;;;;;;;;;;;;;;;;;;5043486;28;87178;-46
2022/02/20 08:16:09;;;;;;;;;;;;;;;;;;5043513;27;88077;-46
2022/02/20 08:18:35;;;;;;;;;;;;;;;;;;5043927;27;88676;-46
2022/02/20 08:21:01;;;;;;;;;;;;;;;;;;5043641;27;87094;-46
2022/02/20 08:23:27;;;;;;;;;;;;;;;;;;5043691;27;88673;-46
2022/02/20 08:25:53;;;;;;;;;;;;;;;;;;5045500;27;90493;-46
2022/02/20 08:28:19;;;;;;;;;;;;;;;;;;5043110;27;89465;-46
2022/02/20 08:30:44;;;;;;;;;;;;;;;;;;5043105;27;89812;-46
2022/02/20 08:33:10;;;;;;;;;;;;;;;;;;5043242;27;87159;-47
2022/02/20 08:35:36;;;;;;;;;;;;;;;;;;5043628;27;87459;-46
2022/02/20 08:38:04;;;;;;;;;;;;;;;;;;5044042;27;89374;-47
2022/02/20 08:40:30;;;;;;;;;;;;;;;;;;5047048;28;87138;-46
2022/02/20 08:42:56;;;;;;;;;;;;;;;;;;5047192;28;87545;-46
2022/02/20 08:45:22;;;;;;;;;;;;;;;;;;5047035;27;87114;-46
2022/02/20 08:47:48;;;;;;;;;;;;;;;;;;5049795;27;87142;-46
2022/02/20 08:50:14;;;;;;;;;;;;;;;;;;5045949;27;90357;-47
2022/02/20 08:52:40;;;;;;;;;;;;;;;;;;5046753;27;87052;-47
2022/02/20 08:55:06;;;;;;;;;;;;;;;;;;5046807;27;88626;-46
2022/02/20 08:57:32;;;;;;;;;;;;;;;;;;5046321;27;87341;-46
2022/02/20 08:59:58;;;;;;;;;;;;;;;;;;5046704;27;87254;-47
2022/02/20 09:02:24;;;;;;;;;;;;;;;;;;5046159;27;88400;-46
2022/02/20 09:04:50;;;;;;;;;;;;;;;;;;5046286;28;89362;-47
2022/02/20 09:07:16;;;;;;;;;;;;;;;;;;5047199;27;86476;-46
2022/02/20 09:09:42;;;;;;;;;;;;;;;;;;5049053;27;87710;-46
2022/02/20 09:12:08;;;;;;;;;;;;;;;;;;5046078;27;86953;-48
2022/02/20 09:14:34;;;;;;;;;;;;;;;;;;5045790;27;88613;-47
2022/02/20 09:17:02;;;;;;;;;;;;;;;;;;5046025;27;89201;-47
2022/02/20 09:19:28;;;;;;;;;;;;;;;;;;5046472;27;87198;-46
2022/02/20 09:21:54;;;;;;;;;;;;;;;;;;5046519;27;88363;-47
2022/02/20 09:24:20;;;;;;;;;;;;;;;;;;5045931;27;89494;-46
2022/02/20 09:26:46;;;;;;;;;;;;;;;;;;5045947;27;87123;-46
2022/02/20 09:29:12;;;;;;;;;;;;;;;;;;5048872;27;87327;-47
2022/02/20 09:31:38;;;;;;;;;;;;;;;;;;5046454;27;86539;-40
2022/02/20 09:34:04;;;;;;;;;;;;;;;;;;5045601;27;86921;-42
2022/02/20 09:36:30;;;;;;;;;;;;;;;;;;5025445;28;89382;-49
2022/02/20 09:38:55;;;;;;;;;;;;;;;;;;5025074;28;88181;-42
2022/02/20 09:41:21;;;;;;;;;;;;;;;;;;5025507;28;89090;-44
2022/02/20 09:43:47;;;;;;;;;;;;;;;;;;5025516;28;89575;-47
2022/02/20 09:46:13;;;;;;;;;;;;;;;;;;5025650;28;87184;-46
2022/02/20 09:48:39;;;;;;;;;;;;;;;;;;5025365;28;88392;-46
2022/02/20 09:51:05;;;;;;;;;;;;;;;;;;5027423;28;89448;-46
2022/02/20 09:53:31;;;;;;;;;;;;;;;;;;5025848;28;88206;-46
2022/02/20 09:55:57;;;;;;;;;;;;;;;;;;5025639;28;88860;-46
2022/02/20 09:58:23;;;;;;;;;;;;;;;;;;5025601;28;87179;-45
2022/02/20 10:00:49;;;;;;;;;;;;;;;;;;5025754;28;88645;-46
2022/02/20 10:03:14;;;;;;;;;;;;;;;;;;5024111;28;90593;-42
2022/02/20 10:05:40;;;;;;;;;;;;;;;;;;5025310;28;87215;-44
2022/02/20 10:08:06;;;;;;;;;;;;;;;;;;5025407;28;88808;-44
2022/02/20 10:10:32;;;;;;;;;;;;;;;;;;5024809;28;89518;-45
2022/02/20 10:12:58;;;;;;;;;;;;;;;;;;5028183;28;86859;-46
2022/02/20 10:15:25;;;;;;;;;;;;;;;;;;5025024;28;89327;-46
2022/02/20 10:17:51;;;;;;;;;;;;;;;;;;5025260;28;86949;-46
2022/02/20 10:20:17;;;;;;;;;;;;;;;;;;5025522;28;87575;-46
2022/02/20 10:22:43;;;;;;;;;;;;;;;;;;5024832;28;89498;-48
2022/02/20 10:25:09;;;;;;;;;;;;;;;;;;5025029;28;87131;-44
2022/02/20 10:27:35;;;;;;;;;;;;;;;;;;5024524;28;88056;-47
2022/02/20 10:30:00;;;;;;;;;;;;;;;;;;5024764;28;89272;-45
2022/02/20 10:32:26;;;;;;;;;;;;;;;;;;5024838;28;87234;-44
2022/02/20 10:34:52;;;;;;;;;;;;;;;;;;5027417;28;88301;-48
2022/02/20 10:37:18;;;;;;;;;;;;;;;;;;5024661;28;86935;-48
2022/02/20 10:39:45;;;;;;;;;;;;;;;;;;5025020;28;88590;-46
2022/02/20 10:42:14;;;;;;;;;;;;;;;;;;5024593;28;89392;-46
2022/02/20 10:44:40;;;;;;;;;;;;;;;;;;5025392;28;86499;-46
2022/02/20 10:47:06;;;;;;;;;;;;;;;;;;5024877;28;87910;-46
2022/02/20 10:49:32;;;;;;;;;;;;;;;;;;5024545;28;88529;-43
2022/02/20 10:51:58;;;;;;;;;;;;;;;;;;5024335;28;88223;-45
2022/02/20 10:54:24;;;;;;;;;;;;;;;;;;5024648;28;89486;-46
2022/02/20 10:56:50;;;;;;;;;;;;;;;;;;5027034;28;89376;-44
2022/02/20 10:59:19;;;;;;;;;;;;;;;;;;5024605;28;88418;-42
2022/02/20 11:01:45;;;;;;;;;;;;;;;;;;5023201;28;89287;-41
2022/02/20 11:04:11;;;;;;;;;;;;;;;;;;5024480;28;87125;-41
2022/02/20 11:06:36;;;;;;;;;;;;;;;;;;5024337;28;87260;-43
2022/02/20 11:09:02;;;;;;;;;;;;;;;;;;5024577;28;88955;-45
2022/02/20 11:11:37;;;;;;;;;;;;;;;;;;5024362;28;87106;-46
2022/02/20 11:14:03;;;;;;;;;;;;;;;;;;5024381;28;88475;-44
2022/02/20 11:16:29;;;;;;;;;;;;;;;;;;5023181;28;90511;-43
2022/02/20 11:18:55;;;;;;;;;;;;;;;;;;5025968;28;86899;-44
2022/02/20 11:21:21;;;;;;;;;;;;;;;;;;5023878;28;89519;-47
2022/02/20 11:23:47;;;;;;;;;;;;;;;;;;5024117;28;87204;-46
2022/02/20 11:26:13;;;;;;;;;;;;;;;;;;5024205;28;88544;-43
2022/02/20 11:28:39;;;;;;;;;;;;;;;;;;5023854;28;89844;-44
2022/02/20 11:31:04;;;;;;;;;;;;;;;;;;5024043;28;87123;-43
2022/02/20 11:33:30;;;;;;;;;;;;;;;;;;5024528;28;88386;-43
2022/02/20 11:35:56;;;;;;;;;;;;;;;;;;5023619;28;89415;-43
2022/02/20 11:38:22;;;;;;;;;;;;;;;;;;5026922;28;87112;-43
2022/02/20 11:40:48;;;;;;;;;;;;;;;;;;5023031;28;90613;-45
2022/02/20 11:43:14;;;;;;;;;;;;;;;;;;5023870;28;87094;-44
2022/02/20 11:45:41;;;;;;;;;;;;;;;;;;5023793;28;87542;-45
2022/02/20 11:48:07;;;;;;;;;;;;;;;;;;5023310;28;89555;-46
2022/02/20 11:50:33;;;;;;;;;;;;;;;;;;5023900;28;87162;-46
2022/02/20 11:52:59;;;;;;;;;;;;;;;;;;5023736;28;88289;-44
2022/02/20 11:55:27;;;;;;;;;;;;;;;;;;5023373;28;89589;-45
2022/02/20 11:57:53;;;;;;;;;;;;;;;;;;5024145;28;86405;-43
2022/02/20 12:00:20;;;;;;;;;;;;;;;;;;5026360;28;87620;-45
2022/02/20 12:02:46;;;;;;;;;;;;;;;;;;5023425;28;87137;-44
2022/02/20 12:05:14;;;;;;;;;;;;;;;;;;5023072;28;88502;-44
2022/02/20 12:07:42;;;;;;;;;;;;;;;;;;5022945;28;89567;-43
2022/02/20 12:10:08;;;;;;;;;;;;;;;;;;5023436;28;87082;-45
2022/02/20 12:12:34;;;;;;;;;;;;;;;;;;5022661;28;88640;-44
2022/02/20 12:15:00;;;;;;;;;;;;;;;;;;5023232;28;89570;-44
2022/02/20 12:17:26;;;;;;;;;;;;;;;;;;5023515;28;87170;-45
2022/02/20 12:19:51;;;;;;;;;;;;;;;;;;5023383;28;88586;-44
2022/02/20 12:22:17;;;;;;;;;;;;;;;;;;5026145;28;89174;-44
2022/02/20 12:24:43;;;;;;;;;;;;;;;;;;5023362;28;87561;-44
2022/02/20 12:27:09;;;;;;;;;;;;;;;;;;5022946;28;89831;-44
2022/02/20 12:29:35;;;;;;;;;;;;;;;;;;5022667;28;87949;-44
2022/02/20 12:32:01;;;;;;;;;;;;;;;;;;5023376;28;89350;-44
2022/02/20 12:34:27;;;;;;;;;;;;;;;;;;5023024;28;89828;-44
2022/02/20 12:36:53;;;;;;;;;;;;;;;;;;5023205;28;87321;-44
2022/02/20 12:39:19;;;;;;;;;;;;;;;;;;5023108;28;86969;-44
2022/02/20 12:41:45;;;;;;;;;;;;;;;;;;5022731;28;89215;-44
2022/02/20 12:44:10;;;;;;;;;;;;;;;;;;5025840;28;87193;-44
2022/02/20 12:46:36;;;;;;;;;;;;;;;;;;5023206;28;87892;-44
2022/02/20 12:49:02;;;;;;;;;;;;;;;;;;5023119;28;87083;-44
2022/02/20 12:51:28;;;;;;;;;;;;;;;;;;5023195;28;87429;-44
2022/02/20 12:53:54;;;;;;;;;;;;;;;;;;5022015;28;90414;-44
2022/02/20 12:56:20;;;;;;;;;;;;;;;;;;5022724;28;87218;-44
2022/02/20 12:58:46;;;;;;;;;;;;;;;;;;5022981;28;88495;-44
2022/02/20 13:01:12;;;;;;;;;;;;;;;;;;5022076;28;88595;-43
2022/02/20 13:03:38;;;;;;;;;;;;;;;;;;5022923;28;86945;-44
2022/02/20 13:06:03;;;;;;;;;;;;;;;;;;5025540;28;88283;-44
2022/02/20 13:08:30;;;;;;;;;;;;;;;;;;5022563;28;87315;-44
2022/02/20 13:10:56;;;;;;;;;;;;;;;;;;5023681;28;86084;-44
2022/02/20 13:13:22;;;;;;;;;;;;;;;;;;5022441;28;89607;-44
2022/02/20 13:15:49;;;;;;;;;;;;;;;;;;5022829;28;87129;-44
2022/02/20 13:18:20;;;;;;;;;;;;;;;;;;5021992;28;88055;-44
2022/02/20 13:20:46;;;;;;;;;;;;;;;;;;5022280;28;89681;-44
2022/02/20 13:23:12;;;;;;;;;;;;;;;;;;5022667;28;87208;-44
2022/02/20 13:25:38;;;;;;;;;;;;;;;;;;5028614;28;88551;-44
2022/02/20 13:28:04;;;;;;;;;;;;;;;;;;5026039;28;87252;-44
2022/02/20 13:30:30;;;;;;;;;;;;;;;;;;5025905;28;88260;-44
2022/02/20 13:32:56;;;;;;;;;;;;;;;;;;5025540;28;88323;-44
2022/02/20 13:35:22;;;;;;;;;;;;;;;;;;5026183;28;86407;-44
2022/02/20 13:37:48;;;;;;;;;;;;;;;;;;5025686;28;88120;-43
2022/02/20 13:40:14;;;;;;;;;;;;;;;;;;5025581;28;89723;-45
2022/02/20 13:42:40;;;;;;;;;;;;;;;;;;5025015;28;88030;-44
2022/02/20 13:45:06;;;;;;;;;;;;;;;;;;5025779;28;88484;-53
2022/02/20 13:47:32;;;;;;;;;;;;;;;;;;5026478;28;89381;-45
2022/02/20 13:49:58;;;;;;;;;;;;;;;;;;5025716;28;88569;-45
2022/02/20 13:52:23;;;;;;;;;;;;;;;;;;5025184;28;89151;-44
2022/02/20 13:54:49;;;;;;;;;;;;;;;;;;5025553;28;87085;-45
2022/02/20 13:57:15;;;;;;;;;;;;;;;;;;5025396;28;88098;-44
2022/02/20 13:59:41;;;;;;;;;;;;;;;;;;5025711;28;89329;-43
2022/02/20 14:02:07;;;;;;;;;;;;;;;;;;5024924;28;87159;-49
2022/02/20 14:04:33;;;;;;;;;;;;;;;;;;5025651;28;88433;-42
2022/02/20 14:06:59;;;;;;;;;;;;;;;;;;5024332;28;90286;-41
2022/02/20 14:09:25;;;;;;;;;;;;;;;;;;5028244;28;86959;-44
2022/02/20 14:11:51;;;;;;;;;;;;;;;;;;5025099;28;89541;-42
2022/02/20 14:14:17;;;;;;;;;;;;;;;;;;5025143;28;87178;-42
2022/02/20 14:16:43;;;;;;;;;;;;;;;;;;5025212;28;88090;-42
2022/02/20 14:19:09;;;;;;;;;;;;;;;;;;5024897;28;90042;-42
2022/02/20 14:21:34;;;;;;;;;;;;;;;;;;5024973;28;87249;-42
2022/02/20 14:24:00;;;;;;;;;;;;;;;;;;5025656;28;88270;-42
2022/02/20 14:26:26;;;;;;;;;;;;;;;;;;5024986;28;88399;-42
2022/02/20 14:28:52;;;;;;;;;;;;;;;;;;5025147;28;87078;-42
2022/02/20 14:31:22;;;;;;;;;;;;;;;;;;5027049;28;88756;-42
2022/02/20 14:33:50;;;;;;;;;;;;;;;;;;5025156;28;87109;-42
2022/02/20 14:36:16;;;;;;;;;;;;;;;;;;5024000;28;87426;-42
2022/02/20 14:38:42;;;;;;;;;;;;;;;;;;5024619;28;89540;-42
2022/02/20 14:41:10;;;;;;;;;;;;;;;;;;5024711;28;87073;-42
2022/02/20 14:43:36;;;;;;;;;;;;;;;;;;5024954;28;88410;-42
2022/02/20 14:46:02;;;;;;;;;;;;;;;;;;5024493;28;89731;-42
2022/02/20 14:48:28;;;;;;;;;;;;;;;;;;5025568;28;86320;-42
2022/02/20 14:50:54;;;;;;;;;;;;;;;;;;5024996;28;86939;-42
2022/02/20 14:53:20;;;;;;;;;;;;;;;;;;5027098;28;89250;-43
2022/02/20 14:55:46;;;;;;;;;;;;;;;;;;5024124;28;88391;-43
2022/02/20 14:58:12;;;;;;;;;;;;;;;;;;5024237;28;89929;-43
2022/02/20 15:00:38;;;;;;;;;;;;;;;;;;5024480;28;87246;-43
2022/02/20 15:03:04;;;;;;;;;;;;;;;;;;5024328;28;88256;-43
2022/02/20 15:05:30;;;;;;;;;;;;;;;;;;5023909;28;89046;-43
2022/02/20 15:07:55;;;;;;;;;;;;;;;;;;5024353;28;87230;-43
2022/02/20 15:10:21;;;;;;;;;;;;;;;;;;5024418;28;88429;-43
2022/02/20 15:12:47;;;;;;;;;;;;;;;;;;5024523;28;88623;-43
2022/02/20 15:15:14;;;;;;;;;;;;;;;;;;5027302;28;87131;-45
2022/02/20 15:17:39;;;;;;;;;;;;;;;;;;5023889;28;89796;-44
2022/02/20 15:20:05;;;;;;;;;;;;;;;;;;5023465;28;88122;-44
2022/02/20 15:22:31;;;;;;;;;;;;;;;;;;5034843;28;89268;-43
2022/02/20 15:24:57;;;;;;;;;;;;;;;;;;5043918;27;89393;-44
2022/02/20 15:27:23;;;;;;;;;;;;;;;;;;5044377;27;87103;-45
2022/02/20 15:29:49;;;;;;;;;;;;;;;;;;5044336;27;88492;-44
2022/02/20 15:32:15;;;;;;;;;;;;;;;;;;5043687;27;89210;-46
2022/02/20 15:34:44;;;;;;;;;;;;;;;;;;5046998;27;87171;-43
2022/02/20 15:37:10;;;;;;;;;;;;;;;;;;5044110;27;88665;-44
2022/02/20 15:39:38;;;;;;;;;;;;;;;;;;5044343;27;87270;-43
2022/02/20 15:42:06;;;;;;;;;;;;;;;;;;5043965;27;88182;-45
2022/02/20 15:44:32;;;;;;;;;;;;;;;;;;5042990;27;90082;-41
2022/02/20 15:46:58;;;;;;;;;;;;;;;;;;5043088;27;87247;-51
2022/02/20 15:49:24;;;;;;;;;;;;;;;;;;5043494;27;88480;-47
2022/02/20 15:51:49;;;;;;;;;;;;;;;;;;5043633;27;89330;-57
2022/02/20 15:54:18;;;;;;;;;;;;;;;;;;5043914;27;87122;-46
2022/02/20 15:56:48;;;;;;;;;;;;;;;;;;5046575;27;88710;-51
2022/02/20 15:59:14;;;;;;;;;;;;;;;;;;5044014;27;86922;-46
2022/02/20 16:01:40;;;;;;;;;;;;;;;;;;5043540;27;88467;-57
2022/02/20 16:04:06;;;;;;;;;;;;;;;;;;5043565;27;89425;-50
2022/02/20 16:06:33;;;;;;;;;;;;;;;;;;5043777;27;87195;-56
2022/02/20 16:08:59;;;;;;;;;;;;;;;;;;5043094;27;88184;-43
2022/02/20 16:11:25;;;;;;;;;;;;;;;;;;5043343;27;90043;-42
2022/02/20 16:13:51;;;;;;;;;;;;;;;;;;5043759;27;87078;-43
2022/02/20 16:16:18;;;;;;;;;;;;;;;;;;5043573;27;88176;-43
2022/02/20 16:18:44;;;;;;;;;;;;;;;;;;5046230;27;89273;-42
2022/02/20 16:21:10;;;;;;;;;;;;;;;;;;5043649;27;88415;-44
2022/02/20 16:23:36;;;;;;;;;;;;;;;;;;5043114;27;89212;-43
2022/02/20 16:26:03;;;;;;;;;;;;;;;;;;5044047;27;86435;-49
2022/02/20 16:28:30;;;;;;;;;;;;;;;;;;5043412;28;87784;-49
2022/02/20 16:30:56;;;;;;;;;;;;;;;;;;5043125;27;89587;-48
2022/02/20 16:33:23;;;;;;;;;;;;;;;;;;5042579;27;88123;-48
2022/02/20 16:35:49;;;;;;;;;;;;;;;;;;5043424;28;89428;-47
2022/02/20 16:38:15;;;;;;;;;;;;;;;;;;5042619;27;89503;-49